createdAt,value
2023-03-02T00:02:06.752Z,100113.25
2023-03-02T00:04:48.177Z,100103.84
2023-03-02T00:07:22.952Z,100100.88
2023-03-02T00:09:50.985Z,100099.69
2023-03-02T00:12:18.906Z,100111.59
2023-03-02T00:14:46.934Z,100106.91
2023-03-02T00:17:14.733Z,100092.16
2023-03-02T00:19:42.243Z,100103.84
2023-03-02T00:22:11.265Z,100082.06
2023-03-02T00:24:43.845Z,100076.09
2023-03-02T00:27:11.585Z,100074.09
2023-03-02T00:29:40.267Z,100090.69
2023-03-02T00:32:09.183Z,100085.66
2023-03-02T00:34:36.614Z,100084.56
2023-03-02T00:37:05.673Z,100080.28
2023-03-02T00:39:33.220Z,100085.66
2023-03-02T00:42:04.058Z,100070.88
2023-03-02T00:44:32.735Z,100076.31
2023-03-02T00:47:03.461Z,100060.06
2023-03-02T00:49:31.692Z,100076.34
2023-03-02T00:52:01.252Z,100072.63
2023-03-02T00:54:28.700Z,100070.41
2023-03-02T00:56:56.545Z,100075.94
2023-03-02T00:59:27.768Z,100071.56
2023-03-02T01:02:29.972Z,100073.47
2023-03-02T01:05:07.128Z,100075.75
2023-03-02T01:07:38.863Z,100065.06
2023-03-02T01:10:08.097Z,100055.88
2023-03-02T01:12:36.372Z,100060.41
2023-03-02T01:15:09.782Z,100049.53
2023-03-02T01:17:41.083Z,100047.69
2023-03-02T01:20:13.764Z,100036.25
2023-03-02T01:23:00.330Z,100036.34
2023-03-02T01:25:27.880Z,100049.91
2023-03-02T01:27:58.418Z,100049.38
2023-03-02T01:30:25.915Z,100050.72
2023-03-02T01:32:54.918Z,100043.19
2023-03-02T01:35:23.050Z,100056.09
2023-03-02T01:37:51.835Z,100058.88
2023-03-02T01:40:19.705Z,100048.22
2023-03-02T01:42:52.727Z,100038.81
2023-03-02T01:45:59.076Z,100050.69
2023-03-02T01:48:58.450Z,100052.75
2023-03-02T01:51:46.226Z,100052.38
2023-03-02T01:54:23.109Z,100055.03
2023-03-02T01:57:03.240Z,100049.91
2023-03-02T01:59:33.563Z,100056.78
2023-03-02T02:02:06.252Z,100064.00
2023-03-02T02:04:37.760Z,100050.13
2023-03-02T02:07:08.332Z,100062.63
2023-03-02T02:09:48.297Z,100042.09
2023-03-02T02:12:35.544Z,100067.50
2023-03-02T02:15:04.416Z,100063.78
2023-03-02T02:17:33.511Z,100056.25
2023-03-02T02:20:40.633Z,100055.91
2023-03-02T02:23:43.512Z,100057.59
2023-03-02T02:26:20.572Z,100059.63
2023-03-02T02:29:08.759Z,100045.84
2023-03-02T02:31:45.823Z,100050.06
2023-03-02T02:34:26.628Z,100049.41
2023-03-02T02:37:11.413Z,100046.06
2023-03-02T02:39:43.554Z,100034.00
2023-03-02T02:42:25.164Z,100035.66
2023-03-02T02:44:57.307Z,100031.97
2023-03-02T02:47:25.882Z,100032.84
2023-03-02T02:49:56.127Z,100018.75
2023-03-02T02:52:27.154Z,100031.97
2023-03-02T02:54:58.030Z,100041.34
2023-03-02T02:57:29.192Z,100033.84
2023-03-02T03:00:04.937Z,100029.16
2023-03-02T03:02:40.291Z,100033.66
2023-03-02T03:05:21.037Z,100029.16
2023-03-02T03:08:42.059Z,100041.22
2023-03-02T03:11:25.974Z,100033.66
2023-03-02T03:14:14.252Z,100015.22
2023-03-02T03:16:45.946Z,100040.72
2023-03-02T03:19:31.740Z,100037.34
2023-03-02T03:22:02.345Z,100011.78
2023-03-02T03:24:35.586Z,100032.94
2023-03-02T03:27:06.366Z,100036.63
2023-03-02T03:29:39.186Z,100039.97
2023-03-02T03:32:09.353Z,100027.22
2023-03-02T03:34:41.200Z,100036.72
2023-03-02T03:37:40.236Z,100034.63
2023-03-02T03:40:09.977Z,100028.59
2023-03-02T03:42:40.380Z,100039.66
2023-03-02T03:45:11.248Z,100031.63
2023-03-02T03:47:40.010Z,100038.69
2023-03-02T03:50:09.566Z,100035.00
2023-03-02T03:52:37.726Z,100042.47
2023-03-02T03:55:20.159Z,100036.13
2023-03-02T03:57:49.342Z,100022.38
2023-03-02T04:00:18.258Z,100028.28
2023-03-02T04:02:54.738Z,100030.00
2023-03-02T04:05:23.888Z,100002.81
2023-03-02T04:07:53.659Z,100024.28
2023-03-02T04:10:22.542Z,100024.13
2023-03-02T04:12:52.099Z,100033.66
2023-03-02T04:15:19.974Z,100031.47
2023-03-02T04:17:50.076Z,100009.19
2023-03-02T04:20:21.913Z,100020.91
2023-03-02T04:22:54.575Z,100030.63
2023-03-02T04:25:25.234Z,100019.25
2023-03-02T04:27:56.505Z,100021.59
2023-03-02T04:30:28.177Z,100012.22
2023-03-02T04:33:00.513Z,100000.53
2023-03-02T04:35:29.776Z,100036.31
2023-03-02T04:37:57.198Z,100028.28
2023-03-02T04:40:25.521Z,100018.88
2023-03-02T04:42:53.117Z,100017.88
2023-03-02T04:45:21.071Z,100025.38
2023-03-02T04:47:48.436Z,100034.63
2023-03-02T04:50:16.230Z,100018.19
2023-03-02T04:52:43.599Z,99997.03
2023-03-02T04:55:19.250Z,100024.59
2023-03-02T04:57:46.604Z,100027.94
2023-03-02T05:00:16.099Z,100024.94
2023-03-02T05:03:04.132Z,100019.91
2023-03-02T05:05:32.580Z,100025.59
2023-03-02T05:08:00.357Z,100019.09
2023-03-02T05:10:28.435Z,100023.44
2023-03-02T05:12:58.456Z,100029.31
2023-03-02T05:15:29.268Z,100029.06
2023-03-02T05:17:57.336Z,100018.47
2023-03-02T05:20:27.854Z,100036.72
2023-03-02T05:22:59.728Z,100035.34
2023-03-02T05:25:59.951Z,100032.03
2023-03-02T05:28:29.857Z,100025.63
2023-03-02T05:30:57.480Z,100031.88
2023-03-02T05:33:24.828Z,100034.00
2023-03-02T05:35:52.520Z,100036.72
2023-03-02T05:38:19.978Z,100010.06
2023-03-02T05:40:48.239Z,100038.09
2023-03-02T05:43:20.316Z,100035.06
2023-03-02T05:45:48.055Z,100028.25
2023-03-02T05:48:15.922Z,100037.34
2023-03-02T05:50:43.684Z,100042.00
2023-03-02T05:53:11.018Z,100036.13
2023-03-02T05:55:38.682Z,100044.31
2023-03-02T05:58:14.636Z,100044.34
2023-03-02T06:00:42.467Z,100041.50
2023-03-02T06:03:10.064Z,100050.88
2023-03-02T06:05:38.476Z,100045.66
2023-03-02T06:08:06.792Z,100050.78
2023-03-02T06:10:35.107Z,100043.53
2023-03-02T06:13:02.734Z,100028.25
2023-03-02T06:15:30.477Z,100049.81
2023-03-02T06:17:58.477Z,100059.16
2023-03-02T06:20:27.331Z,100059.34
2023-03-02T06:23:06.956Z,100049.81
2023-03-02T06:25:36.162Z,100078.47
2023-03-02T06:28:03.505Z,100068.09
2023-03-02T06:30:31.204Z,100050.47
2023-03-02T06:32:59.301Z,100070.06
2023-03-02T06:35:27.025Z,100071.41
2023-03-02T06:37:54.460Z,100070.44
2023-03-02T06:40:22.497Z,100079.47
2023-03-02T06:42:50.492Z,100073.84
2023-03-02T06:45:18.396Z,100065.06
2023-03-02T06:47:45.684Z,100083.22
2023-03-02T06:50:13.325Z,100073.63
2023-03-02T06:52:40.647Z,100085.38
2023-03-02T06:55:09.175Z,100075.81
2023-03-02T06:57:36.730Z,100079.53
2023-03-02T07:00:17.210Z,100067.09
2023-03-02T07:02:45.458Z,100071.75
2023-03-02T07:05:13.427Z,100075.44
2023-03-02T07:07:40.833Z,100076.53
2023-03-02T07:10:11.022Z,100084.22
2023-03-02T07:12:38.380Z,100081.94
2023-03-02T07:15:11.261Z,100084.22
2023-03-02T07:17:39.277Z,100073.97
2023-03-02T07:20:13.157Z,100076.47
2023-03-02T07:22:41.674Z,100086.72
2023-03-02T07:25:10.613Z,100083.56
2023-03-02T07:27:39.279Z,100081.50
2023-03-02T07:30:07.498Z,100083.53
2023-03-02T07:32:34.855Z,100064.03
2023-03-02T07:35:02.644Z,100085.69
2023-03-02T07:37:29.997Z,100080.00
2023-03-02T07:39:59.659Z,100082.81
2023-03-02T07:42:28.011Z,100085.69
2023-03-02T07:44:58.855Z,100077.97
2023-03-02T07:47:26.240Z,100074.09
2023-03-02T07:49:54.322Z,100082.66
2023-03-02T07:52:21.865Z,100069.75
2023-03-02T07:54:49.705Z,100080.47
2023-03-02T07:57:18.334Z,100086.13
2023-03-02T07:59:46.106Z,100078.81
2023-03-02T08:02:20.523Z,100076.44
2023-03-02T08:04:48.580Z,100074.47
2023-03-02T08:07:15.918Z,100064.22
2023-03-02T08:09:43.594Z,100067.06
2023-03-02T08:12:13.818Z,100080.06
2023-03-02T08:14:42.835Z,100076.97
2023-03-02T08:17:14.218Z,100082.31
2023-03-02T08:19:42.927Z,100082.53
2023-03-02T08:22:11.193Z,100079.53
2023-03-02T08:24:43.003Z,100075.81
2023-03-02T08:27:15.533Z,100079.28
2023-03-02T08:29:45.936Z,100093.19
2023-03-02T08:32:16.334Z,100082.13
2023-03-02T08:34:45.057Z,100091.94
2023-03-02T08:37:15.443Z,100096.66
2023-03-02T08:39:43.404Z,100098.03
2023-03-02T08:42:16.536Z,100075.81
2023-03-02T08:44:49.761Z,100085.81
2023-03-02T08:47:19.282Z,100089.63
2023-03-02T08:49:52.468Z,100093.84
2023-03-02T08:52:27.422Z,100095.31
2023-03-02T08:55:04.167Z,100108.88
2023-03-02T08:57:35.117Z,100105.75
2023-03-02T09:00:04.205Z,100095.03
2023-03-02T09:02:35.076Z,100118.72
2023-03-02T09:05:06.571Z,100102.66
2023-03-02T09:07:42.949Z,100110.00
2023-03-02T09:10:13.078Z,100098.84
2023-03-02T09:12:40.847Z,100106.34
2023-03-02T09:15:10.829Z,100105.09
2023-03-02T09:17:41.591Z,100101.72
2023-03-02T09:20:11.224Z,100101.03
2023-03-02T09:22:49.024Z,100086.28
2023-03-02T09:25:23.032Z,100107.13
2023-03-02T09:27:52.955Z,100107.13
2023-03-02T09:30:25.900Z,100117.44
2023-03-02T09:32:55.083Z,100103.81
2023-03-02T09:35:31.015Z,100099.41
2023-03-02T09:38:03.664Z,100077.56
2023-03-02T09:40:42.371Z,100112.47
2023-03-02T09:43:37.494Z,100105.63
2023-03-02T09:46:25.053Z,100101.38
2023-03-02T09:49:23.047Z,100105.31
2023-03-02T09:52:22.234Z,100094.88
2023-03-02T09:54:51.863Z,100106.19
2023-03-02T09:57:37.682Z,100097.09
2023-03-02T10:00:26.184Z,100109.19
2023-03-02T10:03:14.860Z,100103.69
2023-03-02T10:06:05.164Z,100091.84
2023-03-02T10:08:39.174Z,100096.94
2023-03-02T10:11:30.280Z,100091.72
2023-03-02T10:14:18.658Z,100094.25
2023-03-02T10:16:55.760Z,100092.28
2023-03-02T10:19:47.225Z,100086.38
2023-03-02T10:22:51.810Z,100093.00
2023-03-02T10:25:43.752Z,100089.34
2023-03-02T10:28:26.016Z,100086.00
2023-03-02T10:31:34.325Z,100080.31
2023-03-02T10:34:05.956Z,100080.91
2023-03-02T10:36:48.348Z,100084.25
2023-03-02T10:39:21.460Z,100075.25
2023-03-02T10:42:06.850Z,100075.78
2023-03-02T10:44:42.492Z,100063.19
2023-03-02T10:47:23.354Z,100067.03
2023-03-02T10:49:51.295Z,100063.34
2023-03-02T10:52:34.657Z,100075.09
2023-03-02T10:55:13.098Z,100063.19
2023-03-02T10:57:46.984Z,100066.22
2023-03-02T11:00:25.861Z,100067.19
2023-03-02T11:03:21.396Z,100068.53
2023-03-02T11:05:51.283Z,100053.97
2023-03-02T11:08:28.305Z,100063.66
2023-03-02T11:11:05.931Z,100047.91
2023-03-02T11:13:49.536Z,100059.31
2023-03-02T11:16:21.172Z,100056.66
2023-03-02T11:18:57.776Z,100059.97
2023-03-02T11:21:35.948Z,100054.31
2023-03-02T11:24:33.346Z,100051.94
2023-03-02T11:27:35.624Z,100042.88
2023-03-02T11:30:23.286Z,100061.00
2023-03-02T11:33:22.115Z,100053.63
2023-03-02T11:36:24.131Z,100057.50
2023-03-02T11:39:01.594Z,100045.69
2023-03-02T11:41:34.100Z,100045.47
2023-03-02T11:44:21.177Z,100045.34
2023-03-02T11:46:56.351Z,100036.19
2023-03-02T11:49:54.209Z,100046.66
2023-03-02T11:52:25.666Z,100036.91
2023-03-02T11:55:19.906Z,100038.78
2023-03-02T11:58:18.076Z,100033.03
2023-03-02T12:00:51.400Z,100038.41
2023-03-02T12:03:37.521Z,100029.03
2023-03-02T12:06:28.309Z,100033.31
2023-03-02T12:09:24.655Z,100039.63
2023-03-02T12:11:59.330Z,100044.09
2023-03-02T12:14:31.004Z,100053.19
2023-03-02T12:17:40.328Z,100046.91
2023-03-02T12:20:11.338Z,100012.16
2023-03-02T12:22:41.793Z,100034.13
2023-03-02T12:25:36.484Z,100047.31
2023-03-02T12:28:05.816Z,100063.59
2023-03-02T12:30:38.127Z,100034.59
2023-03-02T12:33:21.537Z,100044.38
2023-03-02T12:35:52.213Z,100034.66
2023-03-02T12:38:44.519Z,100048.78
2023-03-02T12:41:43.853Z,100049.16
2023-03-02T12:44:44.410Z,100047.72
2023-03-02T12:47:26.438Z,100051.84
2023-03-02T12:49:58.011Z,100046.16
2023-03-02T12:52:35.438Z,100065.63
2023-03-02T12:55:20.236Z,100045.66
2023-03-02T12:57:58.076Z,100055.56
2023-03-02T13:00:30.452Z,100043.28
2023-03-02T13:03:04.716Z,100048.50
2023-03-02T13:05:39.473Z,100043.84
2023-03-02T13:08:28.959Z,100041.50
2023-03-02T13:10:59.447Z,100033.16
2023-03-02T13:13:39.444Z,100030.75
2023-03-02T13:16:42.743Z,100041.03
2023-03-02T13:19:17.449Z,100036.44
2023-03-02T13:21:49.807Z,100028.28
2023-03-02T13:25:02.111Z,100025.94
2023-03-02T13:27:35.213Z,100025.31
2023-03-02T13:30:28.149Z,99986.00
2023-03-02T13:33:18.097Z,99987.22
2023-03-02T13:36:24.318Z,100015.31
2023-03-02T13:39:07.454Z,100019.41
2023-03-02T13:41:41.134Z,100016.38
2023-03-02T13:47:38.117Z,100048.69
2023-03-02T13:50:18.550Z,100017.22
2023-03-02T13:53:12.519Z,100014.81
2023-03-02T13:55:40.366Z,100008.22
2023-03-02T13:58:18.251Z,100017.63
2023-03-02T14:00:51.676Z,100018.09
2023-03-02T14:03:28.717Z,100007.16
2023-03-02T14:06:02.900Z,100013.75
2023-03-02T14:08:33.158Z,99996.34
2023-03-02T14:11:06.561Z,100007.81
2023-03-02T14:13:57.310Z,99997.91
2023-03-02T14:16:28.604Z,100008.50
2023-03-02T14:19:06.040Z,99989.38
2023-03-02T14:21:42.468Z,100002.97
2023-03-02T14:24:21.299Z,99990.19
2023-03-02T14:26:57.508Z,99993.53
2023-03-02T14:29:38.342Z,99997.59
2023-03-02T14:32:08.186Z,99991.88
2023-03-02T14:34:43.628Z,100001.94
2023-03-02T14:37:22.163Z,99999.56
2023-03-02T14:39:58.297Z,100003.69
2023-03-02T14:42:27.235Z,100000.03
2023-03-02T14:45:07.447Z,100000.91
2023-03-02T14:47:36.461Z,100000.06
2023-03-02T14:50:13.864Z,99991.69
2023-03-02T14:53:13.783Z,100010.41
2023-03-02T14:55:47.290Z,100005.84
2023-03-02T14:58:36.158Z,99999.78
2023-03-02T15:01:42.228Z,100002.78
2023-03-02T15:04:11.176Z,100001.72
2023-03-02T15:06:46.552Z,100001.72
2023-03-02T15:09:40.957Z,99990.66
2023-03-02T15:12:18.736Z,99988.66
2023-03-02T15:15:39.499Z,99997.16
2023-03-02T15:18:10.469Z,99989.00
2023-03-02T15:20:38.931Z,99988.34
2023-03-02T15:23:06.923Z,100001.75
2023-03-02T15:25:34.669Z,99992.69
2023-03-02T15:28:03.904Z,99996.09
2023-03-02T15:30:38.781Z,99996.16
2023-03-02T15:33:13.175Z,99997.53
2023-03-02T15:35:42.565Z,99996.25
2023-03-02T15:38:11.406Z,99999.59
2023-03-02T15:40:41.356Z,99999.28
2023-03-02T15:43:10.301Z,100002.28
2023-03-02T15:45:46.607Z,100002.28
2023-03-02T15:48:25.294Z,100000.63
2023-03-02T15:51:02.347Z,100007.47
2023-03-02T15:53:32.386Z,100008.66
2023-03-02T15:56:07.402Z,100016.38
2023-03-02T15:58:37.411Z,100005.31
2023-03-02T16:01:12.623Z,100015.66
2023-03-02T16:03:46.574Z,100010.94
2023-03-02T16:06:16.290Z,100019.59
2023-03-02T16:08:45.721Z,100034.97
2023-03-02T16:11:18.905Z,100026.06
2023-03-02T16:13:49.149Z,100029.94
2023-03-02T16:16:21.694Z,100028.28
2023-03-02T16:18:58.523Z,100022.22
2023-03-02T16:21:29.694Z,100032.94
2023-03-02T16:24:04.195Z,100032.59
2023-03-02T16:26:35.749Z,100021.53
2023-03-02T16:29:05.611Z,100036.25
2023-03-02T16:31:38.014Z,100013.25
2023-03-02T16:34:10.042Z,100040.94
2023-03-02T16:36:40.509Z,100037.47
2023-03-02T16:39:11.790Z,100039.34
2023-03-02T16:41:46.555Z,100040.09
2023-03-02T16:44:18.191Z,100045.22
2023-03-02T16:46:51.458Z,100040.06
2023-03-02T16:49:28.202Z,100038.00
2023-03-02T16:51:59.210Z,100033.97
2023-03-02T16:54:30.134Z,100040.22
2023-03-02T16:59:53.097Z,100047.34
2023-03-02T17:02:29.573Z,100048.47
2023-03-02T17:05:06.229Z,100049.31
2023-03-02T17:07:37.910Z,100040.91
2023-03-02T17:10:12.710Z,100050.47
2023-03-02T17:12:42.800Z,100051.16
2023-03-02T17:15:14.460Z,100045.16
2023-03-02T17:17:51.186Z,100050.06
2023-03-02T17:20:29.656Z,100055.91
2023-03-02T17:26:15.816Z,100063.97
2023-03-02T17:29:05.123Z,100054.81
2023-03-02T17:31:45.757Z,100050.38
2023-03-02T17:34:19.527Z,100047.78
2023-03-02T17:37:00.412Z,100047.19
2023-03-02T17:39:43.119Z,100049.88
2023-03-02T17:42:23.973Z,100051.00
2023-03-02T17:45:00.828Z,100055.56
2023-03-02T17:47:36.553Z,100049.47
2023-03-02T17:50:08.274Z,100042.19
2023-03-02T17:52:44.569Z,100042.03
2023-03-02T17:55:24.907Z,100050.31
2023-03-02T17:57:53.488Z,100044.41
2023-03-02T18:00:28.345Z,100046.25
2023-03-02T18:03:03.191Z,100063.44
2023-03-02T18:05:35.971Z,100069.31
2023-03-02T18:08:05.565Z,100062.88
2023-03-02T18:10:53.458Z,100054.84
2023-03-02T18:13:34.975Z,100057.63
2023-03-02T18:16:50.778Z,100074.22
2023-03-02T18:19:20.657Z,100060.75
2023-03-02T18:22:16.709Z,100070.75
2023-03-02T18:24:53.529Z,100062.88
2023-03-02T18:27:27.917Z,100060.22
2023-03-02T18:29:58.766Z,100065.28
2023-03-02T18:32:36.424Z,100058.53
2023-03-02T18:35:18.489Z,100064.03
2023-03-02T18:38:23.173Z,100060.69
2023-03-02T18:41:03.828Z,100070.38
2023-03-02T18:44:03.879Z,100079.91
2023-03-02T18:46:37.439Z,100076.31
2023-03-02T18:49:11.379Z,100078.84
2023-03-02T18:51:44.603Z,100077.38
2023-03-02T18:54:16.086Z,100069.13
2023-03-02T18:56:47.342Z,100075.19
2023-03-02T18:59:19.194Z,100076.00
2023-03-02T19:02:19.030Z,100072.50
2023-03-02T19:04:49.198Z,100080.22
2023-03-02T19:07:27.201Z,100071.78
2023-03-02T19:09:56.377Z,100069.81
2023-03-02T19:12:39.411Z,100074.63
2023-03-02T19:15:11.417Z,100082.97
2023-03-02T19:17:45.215Z,100079.53
2023-03-02T19:20:16.859Z,100077.50
2023-03-02T19:22:46.903Z,100075.75
2023-03-02T19:25:18.735Z,100079.72
2023-03-02T19:27:48.332Z,100083.09
2023-03-02T19:30:21.584Z,100074.38
2023-03-02T19:32:54.406Z,100070.72
2023-03-02T19:35:28.822Z,100076.31
2023-03-02T19:38:03.097Z,100088.88
2023-03-02T19:40:33.687Z,100085.06
2023-03-02T19:43:06.719Z,100085.84
2023-03-02T19:46:03.790Z,100082.84
2023-03-02T19:48:38.098Z,100092.69
2023-03-02T19:51:33.540Z,100082.31
2023-03-02T19:54:10.502Z,100092.00
2023-03-02T19:56:44.400Z,100089.78
2023-03-02T19:59:16.948Z,100095.25
2023-03-02T20:07:50.715Z,100081.72
2023-03-02T20:10:46.581Z,100087.06
2023-03-02T20:13:27.067Z,100085.53
2023-03-02T20:16:03.968Z,100095.25
2023-03-02T20:18:45.795Z,100096.94
2023-03-02T20:21:14.403Z,100091.28
2023-03-02T20:23:45.011Z,100094.38
2023-03-02T20:26:24.617Z,100091.53
2023-03-02T20:28:53.513Z,100099.56
2023-03-02T20:31:27.109Z,100090.94
2023-03-02T20:34:09.262Z,100092.31
2023-03-02T20:36:40.834Z,100086.56
2023-03-02T20:39:27.679Z,100084.53
2023-03-02T20:42:08.100Z,100084.00
2023-03-02T20:44:45.480Z,100084.44
2023-03-02T20:47:52.023Z,100091.28
2023-03-02T20:50:49.024Z,100085.69
2023-03-02T20:53:18.454Z,100084.66
2023-03-02T20:55:45.981Z,100074.69
2023-03-02T20:58:37.115Z,100083.63
2023-03-02T21:01:11.094Z,100069.34
2023-03-02T21:03:43.533Z,100067.38
2023-03-02T21:06:16.563Z,100078.19
2023-03-02T21:08:52.769Z,100060.94
2023-03-02T21:11:23.222Z,100077.75
2023-03-02T21:14:04.822Z,100068.88
2023-03-02T21:16:40.376Z,100068.25
2023-03-02T21:19:17.420Z,100063.16
2023-03-02T21:21:46.741Z,100058.41
2023-03-02T21:24:24.198Z,100063.69
2023-03-02T21:26:54.423Z,100068.25
2023-03-02T21:29:26.863Z,100051.53
2023-03-02T21:31:58.254Z,100050.28
2023-03-02T21:34:59.040Z,100054.91
2023-03-02T21:37:58.098Z,100049.09
2023-03-02T21:40:44.066Z,100053.88
2023-03-02T21:43:39.318Z,100044.59
2023-03-02T21:46:13.374Z,100048.38
2023-03-02T21:48:44.640Z,100025.75
2023-03-02T21:51:14.475Z,100043.44
2023-03-02T21:53:44.495Z,100035.09
2023-03-02T21:56:23.854Z,100025.41
2023-03-02T21:59:02.393Z,100038.78
2023-03-02T22:01:30.225Z,100030.84
2023-03-02T22:04:10.781Z,100045.84
2023-03-02T22:07:01.181Z,100018.53
2023-03-02T22:09:36.499Z,100034.81
2023-03-02T22:12:12.091Z,100027.78
2023-03-02T22:14:40.715Z,100022.75
2023-03-02T22:17:22.232Z,100037.97
2023-03-02T22:19:51.380Z,100028.19
2023-03-02T22:22:28.813Z,100016.41
2023-03-02T22:25:00.333Z,100025.09
2023-03-02T22:27:31.603Z,100015.56
2023-03-02T22:30:10.777Z,100031.16
2023-03-02T22:33:01.773Z,100027.75
2023-03-02T22:35:29.462Z,100017.50
2023-03-02T22:38:05.639Z,100024.22
2023-03-02T22:40:41.298Z,100029.25
2023-03-02T22:43:11.193Z,100022.25
2023-03-02T22:45:40.571Z,100025.34
2023-03-02T22:48:20.734Z,100016.75
2023-03-02T22:50:50.072Z,100014.75
2023-03-02T22:53:25.878Z,100006.66
2023-03-02T22:55:59.554Z,100010.72
2023-03-02T22:58:47.113Z,99996.38
2023-03-02T23:01:43.404Z,100012.66
2023-03-02T23:04:21.672Z,100010.13
2023-03-02T23:07:01.889Z,100012.25
2023-03-02T23:09:37.665Z,100009.28
2023-03-02T23:15:30.132Z,100007.31
2023-03-02T23:18:14.016Z,100008.69
2023-03-02T23:20:45.005Z,100015.88
2023-03-02T23:23:32.004Z,100016.78
2023-03-02T23:25:59.980Z,100016.34
2023-03-02T23:28:32.242Z,100017.88
2023-03-02T23:31:02.737Z,100010.06
2023-03-02T23:33:31.639Z,100010.47
2023-03-02T23:36:00.201Z,100011.44
2023-03-02T23:38:29.001Z,100019.47
2023-03-02T23:41:02.060Z,100028.56
2023-03-02T23:43:32.698Z,100021.81
2023-03-02T23:46:14.819Z,100025.44
2023-03-02T23:48:46.386Z,100022.63
2023-03-02T23:51:16.479Z,100014.50
2023-03-02T23:53:52.313Z,100018.31
2023-03-02T23:56:21.598Z,100021.16
2023-03-02T23:59:03.484Z,100014.50
